Altnaharra, United Kingdom

11:59 PM GMT on November 28, 2014 (GMT +0000)
ISUTHERL3 | Change Station
CLOSE
Current Station
Personal Weather Station
Location: Shinness, Sutherland
Elevation: 436 ft
Nearby Weather Stations

Elev 436 ft 58.08 °N, 4.44 °W | Updated 5 seconds ago

Drizzle
Drizzle
47.1 °F
Feels Like 42 °F
N
10.7
Wind Variable Wind from East
Gusts 11.4 mph

Today
High -- | Low -- °F
--% Chance of Precip.
Yesterday
High -- | Low -- °F
Precip. -- in
8:33 AM 3:37 PM
Waxing Crescent, 45% visible
Pressure 29.95 in
Visibility 3.7 miles
Clouds Mostly Cloudy 600 ft
Mostly Cloudy 1000 ft
Windchill 42 °F
Dew Point 46 °F
Humidity 95%
Rainfall 0.00 in
Snow Depth Not available.
UV 0 out of 12
Pollen Not available.
Air Quality Not available.
Flu Activity Not available.
METAR EGPC 282350Z AUTO 15018KT 6000 DZ BKN006/// BKN010/// 09/08 Q1014

More Conditions Fewer Conditions

Pressure 29.95 in
Visibility 3.7 miles
Clouds Mostly Cloudy 600 ft
Mostly Cloudy 1000 ft
Windchill 42 °F
Dew Point 46 °F
Humidity 95%
Rainfall 0.00 in
Snow Depth Not available.
UV 0 out of 12
Pollen Not available.
Air Quality Not available.
Flu Activity Not available.
METAR EGPC 282350Z AUTO 15018KT 6000 DZ BKN006/// BKN010/// 09/08 Q1014

More Conditions Fewer Conditions

10-Day Weather Forecast

Almanac

Astronomy

Nov. 28, 2014 Rise Set
Actual Time
Civil Twilight
Nautical Twilight
Astronomical Twilight
Moon
Length of Visible Light
Length of Day
Tomorrow will be .
, % of the Moon is Illuminated

Today's Extremes

Country Highs Country Lows

Community

WunderPhotos

Upload Photos

1,774,339 photos uploaded!

WunderBlogs® & News

Nearby

Air Quality

  Air Quality AQ Index Pollutant
Not available.

Snow Depth

Station Depth Elevation

Earthquake Activity

City Distance Mag. Time & Date
Minimum magnitude displayed is 2.5.

Coastal Water Temperatures

Place Temperature

Nearby Weather Stations